createdAt,value
2022-08-24T00:01:39.695Z,461.64706
2022-08-24T00:06:41.908Z,448.91803
2022-08-24T00:11:43.605Z,440.77419
2022-08-24T00:16:45.456Z,448.91803
2022-08-24T00:21:47.319Z,475.03448
2022-08-24T00:26:48.996Z,479.65217
2022-08-24T00:31:50.867Z,489.13274
2022-08-24T00:36:52.872Z,509.13761
2022-08-24T00:41:54.483Z,536.30769
2022-08-24T00:46:56.678Z,542.05825
2022-08-24T00:51:58.576Z,553.90099
2022-08-24T00:57:00.481Z,553.90099
2022-08-24T01:02:08.456Z,560
2022-08-24T01:07:18.040Z,572.57143
2022-08-24T01:12:19.534Z,572.57143
2022-08-24T01:17:21.130Z,572.57143
2022-08-24T01:22:22.625Z,579.05155
2022-08-24T01:27:27.762Z,585.66667
2022-08-24T01:32:29.680Z,579.05155
2022-08-24T01:37:31.384Z,585.66667
2022-08-24T01:42:32.847Z,585.66667
2022-08-24T01:47:34.342Z,599.31915
2022-08-24T01:53:03.468Z,599.31915
2022-08-24T01:58:06.821Z,592.42105
2022-08-24T02:03:08.934Z,585.66667
2022-08-24T02:08:11.080Z,592.42105
2022-08-24T02:13:12.918Z,585.66667
2022-08-24T02:18:17.090Z,585.66667
2022-08-24T02:23:19.107Z,585.66667
2022-08-24T02:28:20.994Z,592.42105
2022-08-24T02:33:22.968Z,579.05155
2022-08-24T02:38:24.635Z,579.05155
2022-08-24T02:43:26.284Z,579.05155
2022-08-24T02:48:27.752Z,579.05155
2022-08-24T02:53:29.336Z,579.05155
2022-08-24T02:58:31.121Z,572.57143
2022-08-24T03:03:32.929Z,572.57143
2022-08-24T03:08:34.715Z,553.90099
2022-08-24T03:13:37.545Z,560
2022-08-24T03:18:39.743Z,572.57143
2022-08-24T03:23:41.722Z,579.05155
2022-08-24T03:28:45.069Z,579.05155
2022-08-24T03:33:47.065Z,579.05155
2022-08-24T03:38:49.376Z,572.57143
2022-08-24T03:43:51.181Z,572.57143
2022-08-24T03:48:53.625Z,553.90099
2022-08-24T03:53:56.195Z,560
2022-08-24T03:58:57.968Z,553.90099
2022-08-24T04:04:00.184Z,542.05825
2022-08-24T04:09:02.510Z,536.30769
2022-08-24T04:14:04.616Z,519.70093
2022-08-24T04:19:06.391Z,519.70093
2022-08-24T04:24:07.968Z,530.66667
2022-08-24T04:29:09.552Z,519.70093
2022-08-24T04:34:11.206Z,498.95495
2022-08-24T04:39:12.918Z,494
2022-08-24T04:44:14.496Z,479.65217
2022-08-24T04:49:16.184Z,466.0339
2022-08-24T04:54:17.650Z,466.0339
2022-08-24T04:59:19.088Z,475.03448
2022-08-24T05:04:20.649Z,466.0339
2022-08-24T05:09:22.662Z,475.03448
2022-08-24T05:14:28.401Z,479.65217
2022-08-24T05:19:30.461Z,504
2022-08-24T05:24:32.033Z,498.95495
2022-08-24T05:29:33.486Z,519.70093
2022-08-24T05:34:35.041Z,519.70093
2022-08-24T05:39:36.878Z,498.95495
2022-08-24T05:44:38.454Z,530.66667
2022-08-24T05:49:41.771Z,536.30769
2022-08-24T05:54:43.488Z,536.30769
2022-08-24T05:59:45.428Z,566.22222
2022-08-24T06:04:47.039Z,572.57143
2022-08-24T06:09:49.266Z,613.56522
2022-08-24T06:14:51.012Z,592.42105
2022-08-24T06:19:52.866Z,620.92308
2022-08-24T06:24:54.656Z,599.31915
2022-08-24T06:29:56.470Z,599.31915
2022-08-24T06:34:58.123Z,579.05155
2022-08-24T06:40:00.818Z,547.92157
2022-08-24T06:45:02.737Z,560
2022-08-24T06:50:04.489Z,566.22222
2022-08-24T06:55:06.427Z,553.90099
2022-08-24T07:00:08.302Z,572.57143
2022-08-24T07:05:10.174Z,636.13483
2022-08-24T07:10:11.947Z,613.56522
2022-08-24T07:15:16.263Z,636.13483
2022-08-24T07:20:18.572Z,652.04598
2022-08-24T07:25:20.530Z,644
2022-08-24T07:30:26.926Z,660.27907
2022-08-24T07:35:28.725Z,660.27907
2022-08-24T07:40:30.646Z,668.70588
2022-08-24T07:45:32.330Z,644
2022-08-24T07:50:33.976Z,660.27907
2022-08-24T07:55:35.749Z,677.33333
2022-08-24T08:00:47.661Z,776.43243
2022-08-24T08:05:49.535Z,836.75362
2022-08-24T08:10:51.502Z,799.55556
2022-08-24T08:15:56.782Z,849.88235
2022-08-24T08:21:01.592Z,849.88235
2022-08-24T08:26:03.656Z,877.33333
2022-08-24T08:31:06.454Z,891.69231
2022-08-24T08:36:08.618Z,906.5
2022-08-24T08:41:10.810Z,906.5
2022-08-24T08:46:12.709Z,906.5
2022-08-24T08:51:14.571Z,877.33333
2022-08-24T08:56:16.615Z,921.77778
2022-08-24T09:01:18.449Z,988.0678
2022-08-24T09:06:20.449Z,970.66667
2022-08-24T09:11:23.051Z,953.83607
2022-08-24T09:16:24.989Z,937.54839
2022-08-24T09:21:26.592Z,970.66667
2022-08-24T09:26:28.420Z,1006.06897
2022-08-24T09:31:29.885Z,1024.70175
2022-08-24T09:36:31.748Z,1006.06897
2022-08-24T09:41:33.562Z,1084.74074
2022-08-24T09:46:35.038Z,1128.61538
2022-08-24T09:51:36.546Z,1201.14286
2022-08-24T09:56:38.019Z,1344
2022-08-24T10:01:39.868Z,1312.88889
2022-08-24T10:06:41.462Z,1227.33333
2022-08-24T10:11:43.541Z,1254.6383
2022-08-24T10:16:45.146Z,1151.84314
2022-08-24T10:21:46.816Z,1312.88889
2022-08-24T10:26:48.484Z,1151.84314
2022-08-24T10:31:50.147Z,1176
2022-08-24T10:36:51.856Z,1176
2022-08-24T10:41:54.141Z,1151.84314
2022-08-24T10:46:58.734Z,1128.61538
2022-08-24T10:52:00.492Z,1106.26415
2022-08-24T10:57:02.174Z,1106.26415
2022-08-24T11:02:10.008Z,1254.6383
2022-08-24T11:07:14.466Z,1151.84314
2022-08-24T11:12:17.527Z,1254.6383
2022-08-24T11:17:19.562Z,1227.33333
2022-08-24T11:22:21.382Z,1201.14286
2022-08-24T11:27:23.593Z,1227.33333
2022-08-24T11:32:25.689Z,1254.6383
2022-08-24T11:37:30.658Z,1283.13043
2022-08-24T11:42:33.762Z,1376.55814
2022-08-24T11:47:35.211Z,1312.88889
2022-08-24T11:52:36.803Z,1283.13043
2022-08-24T11:57:38.385Z,1254.6383
2022-08-24T12:02:49.840Z,1344
2022-08-24T12:07:52.175Z,1151.84314
2022-08-24T12:12:55.230Z,1254.6383
2022-08-24T12:17:57.014Z,1201.14286
2022-08-24T12:22:58.788Z,1312.88889
2022-08-24T12:28:00.916Z,1254.6383
2022-08-24T12:33:02.816Z,1254.6383
2022-08-24T12:38:04.851Z,1227.33333
2022-08-24T12:43:07.091Z,1176
2022-08-24T12:48:09.084Z,1254.6383
2022-08-24T12:53:12.365Z,1106.26415
2022-08-24T12:58:31.479Z,1254.6383
2022-08-24T13:03:36.273Z,1151.84314
2022-08-24T13:08:37.849Z,1227.33333
2022-08-24T13:13:42.619Z,1254.6383
2022-08-24T13:18:44.502Z,1312.88889
2022-08-24T13:23:46.342Z,1312.88889
2022-08-24T13:28:48.336Z,1151.84314
2022-08-24T13:33:50.215Z,1283.13043
2022-08-24T13:38:52.498Z,1254.6383
2022-08-24T13:43:54.578Z,1176
2022-08-24T13:48:56.873Z,1201.14286
2022-08-24T13:53:58.763Z,1227.33333
2022-08-24T13:59:00.571Z,1254.6383
2022-08-24T14:04:03.019Z,1227.33333
2022-08-24T14:09:04.781Z,1227.33333
2022-08-24T14:14:06.855Z,1312.88889
2022-08-24T14:19:08.841Z,1376.55814
2022-08-24T14:24:10.698Z,1254.6383
2022-08-24T14:29:12.601Z,1201.14286
2022-08-24T14:34:14.664Z,1283.13043
2022-08-24T14:39:16.574Z,1227.33333
2022-08-24T14:44:18.588Z,1176
2022-08-24T14:49:20.410Z,1064
2022-08-24T14:54:22.246Z,1227.33333
2022-08-24T14:59:24.085Z,1254.6383
2022-08-24T15:04:27.430Z,1151.84314
2022-08-24T15:09:39.513Z,1151.84314
2022-08-24T15:14:41.302Z,1176
2022-08-24T15:19:43.393Z,891.69231
2022-08-24T15:24:45.346Z,953.83607
2022-08-24T15:29:47.495Z,1064
2022-08-24T15:34:49.128Z,1044
2022-08-24T15:39:51.108Z,787.83562
2022-08-24T15:44:53.156Z,811.60563
2022-08-24T15:49:55.164Z,660.27907
2022-08-24T15:54:56.936Z,652.04598
2022-08-24T15:59:58.759Z,331.42138
2022-08-24T16:05:00.445Z,466.0339
2022-08-24T16:10:02.106Z,553.90099
2022-08-24T16:15:04.231Z,628.44444
2022-08-24T16:20:05.907Z,636.13483
2022-08-24T16:25:07.779Z,585.66667
2022-08-24T16:30:09.500Z,572.57143
2022-08-24T16:35:12.895Z,566.22222
2022-08-24T16:40:14.772Z,489.13274
2022-08-24T16:45:16.947Z,475.03448
2022-08-24T16:50:18.844Z,494
2022-08-24T16:55:20.605Z,514.37037
2022-08-24T17:00:22.842Z,453.09091
2022-08-24T17:05:24.605Z,466.0339
2022-08-24T17:10:26.090Z,572.57143
2022-08-24T17:15:27.961Z,572.57143
2022-08-24T17:20:29.464Z,547.92157
2022-08-24T17:25:30.988Z,525.13208
2022-08-24T17:30:32.618Z,530.66667
2022-08-24T17:35:34.886Z,547.92157
2022-08-24T17:40:36.578Z,519.70093
2022-08-24T17:45:38.407Z,530.66667
2022-08-24T17:50:39.873Z,509.13761
2022-08-24T17:55:41.372Z,484.35088
2022-08-24T18:00:43.153Z,494
2022-08-24T18:05:44.799Z,498.95495
2022-08-24T18:10:46.250Z,494
2022-08-24T18:15:49.862Z,475.03448
2022-08-24T18:20:51.401Z,498.95495
2022-08-24T18:25:52.883Z,509.13761
2022-08-24T18:30:54.547Z,498.95495
2022-08-24T18:35:56.019Z,494
2022-08-24T18:41:00.315Z,504
2022-08-24T18:46:02.288Z,514.37037
2022-08-24T18:51:04.692Z,547.92157
2022-08-24T18:56:11.816Z,547.92157
2022-08-24T19:01:14.748Z,560
2022-08-24T19:06:17.466Z,553.90099
2022-08-24T19:11:20.190Z,572.57143
2022-08-24T19:16:22.125Z,585.66667
2022-08-24T19:21:23.751Z,620.92308
2022-08-24T19:26:25.520Z,628.44444
2022-08-24T19:31:27.465Z,628.44444
2022-08-24T19:36:29.019Z,636.13483
2022-08-24T19:41:36.315Z,652.04598
2022-08-24T19:46:39.030Z,644
2022-08-24T19:51:40.571Z,628.44444
2022-08-24T19:56:42.478Z,644
2022-08-24T20:01:44.110Z,644
2022-08-24T20:06:46.006Z,652.04598
2022-08-24T20:11:48.350Z,660.27907
2022-08-24T20:16:50.776Z,644
2022-08-24T20:21:52.726Z,652.04598
2022-08-24T20:26:54.522Z,652.04598
2022-08-24T20:31:56.394Z,668.70588
2022-08-24T20:36:58.961Z,695.21951
2022-08-24T20:42:01.460Z,704.49383
2022-08-24T20:47:04.261Z,686.16867
2022-08-24T20:52:06.096Z,677.33333
2022-08-24T20:57:08.082Z,686.16867
2022-08-24T21:02:10.353Z,704.49383
2022-08-24T21:07:12.871Z,714
2022-08-24T21:12:14.761Z,686.16867
2022-08-24T21:17:17.034Z,668.70588
2022-08-24T21:22:18.972Z,704.49383
2022-08-24T21:27:21.126Z,714
2022-08-24T21:32:23.000Z,704.49383
2022-08-24T21:37:24.744Z,714
2022-08-24T21:42:27.347Z,668.70588
2022-08-24T21:47:34.212Z,695.21951
2022-08-24T21:52:35.863Z,677.33333
2022-08-24T21:57:37.936Z,677.33333
2022-08-24T22:02:39.948Z,668.70588
2022-08-24T22:07:41.668Z,677.33333
2022-08-24T22:12:43.506Z,695.21951
2022-08-24T22:17:45.447Z,686.16867
2022-08-24T22:22:53.372Z,695.21951
2022-08-24T22:27:55.250Z,695.21951
2022-08-24T22:32:56.985Z,704.49383
2022-08-24T22:37:58.525Z,714
2022-08-24T22:43:00.340Z,695.21951
2022-08-24T22:48:02.357Z,723.74684
2022-08-24T22:53:04.186Z,704.49383
2022-08-24T22:58:06.198Z,704.49383
2022-08-24T23:03:08.040Z,704.49383
2022-08-24T23:08:09.917Z,714
2022-08-24T23:13:11.438Z,704.49383
2022-08-24T23:18:13.585Z,677.33333
2022-08-24T23:23:15.029Z,652.04598
2022-08-24T23:28:16.445Z,606.36559
2022-08-24T23:33:18.506Z,585.66667
2022-08-24T23:38:20.039Z,542.05825
2022-08-24T23:43:22.123Z,519.70093
2022-08-24T23:48:24.265Z,525.13208
2022-08-24T23:53:26.006Z,498.95495
2022-08-24T23:58:27.985Z,498.95495
